createdAt,value
2018-05-07T00:00:16.873Z,15.70
2018-05-07T00:02:44.348Z,15.70
2018-05-07T00:05:11.813Z,15.60
2018-05-07T00:07:39.266Z,15.60
2018-05-07T00:10:06.712Z,15.60
2018-05-07T00:12:34.947Z,15.60
2018-05-07T00:15:02.392Z,15.60
2018-05-07T00:17:29.893Z,15.60
2018-05-07T00:19:57.344Z,15.60
2018-05-07T00:22:24.825Z,15.60
2018-05-07T00:24:52.272Z,15.50
2018-05-07T00:27:19.720Z,15.40
2018-05-07T00:29:48.024Z,15.30
2018-05-07T00:32:15.598Z,15.20
2018-05-07T00:34:43.857Z,15.20
2018-05-07T00:37:12.105Z,15.20
2018-05-07T00:39:39.560Z,15.20
2018-05-07T00:42:07.016Z,15.20
2018-05-07T00:44:34.485Z,15.30
2018-05-07T00:47:01.929Z,15.30
2018-05-07T00:49:30.144Z,15.10
2018-05-07T00:51:57.608Z,15.00
2018-05-07T00:54:25.065Z,14.90
2018-05-07T00:56:53.284Z,14.70
2018-05-07T00:59:20.752Z,14.80
2018-05-07T01:01:48.232Z,14.70
2018-05-07T01:04:15.677Z,14.80
2018-05-07T01:06:43.150Z,14.90
2018-05-07T01:09:10.650Z,15.00
2018-05-07T01:11:38.125Z,15.10
2018-05-07T01:14:05.587Z,15.10
2018-05-07T01:16:33.060Z,15.20
2018-05-07T01:19:00.632Z,15.20
2018-05-07T01:21:28.092Z,15.20
2018-05-07T01:23:55.557Z,15.10
2018-05-07T01:26:23.001Z,14.90
2018-05-07T01:28:50.460Z,14.70
2018-05-07T01:31:17.908Z,14.60
2018-05-07T01:33:46.137Z,14.30
2018-05-07T01:36:13.642Z,14.30
2018-05-07T01:38:41.201Z,14.20
2018-05-07T01:41:08.653Z,14.20
2018-05-07T01:43:36.125Z,14.10
2018-05-07T01:46:03.655Z,14.00
2018-05-07T01:48:31.890Z,13.90
2018-05-07T01:50:59.541Z,13.80
2018-05-07T01:53:26.988Z,13.80
2018-05-07T01:55:55.226Z,13.50
2018-05-07T01:58:22.672Z,13.60
2018-05-07T02:00:50.172Z,13.50
2018-05-07T02:03:17.620Z,13.40
2018-05-07T02:05:45.112Z,13.40
2018-05-07T02:08:12.581Z,13.30
2018-05-07T02:10:40.036Z,13.20
2018-05-07T02:13:07.511Z,13.10
2018-05-07T02:15:34.961Z,13.10
2018-05-07T02:18:02.486Z,13.10
2018-05-07T02:20:29.926Z,13.00
2018-05-07T02:22:57.400Z,13.00
2018-05-07T02:25:24.847Z,12.90
2018-05-07T02:27:52.340Z,12.80
2018-05-07T02:30:19.810Z,12.70
2018-05-07T02:32:47.280Z,12.60
2018-05-07T02:35:14.736Z,12.60
2018-05-07T02:37:42.237Z,12.50
2018-05-07T02:40:09.715Z,12.50
2018-05-07T02:42:37.177Z,12.50
2018-05-07T02:45:04.649Z,12.40
2018-05-07T02:47:32.108Z,12.40
2018-05-07T02:49:59.674Z,12.30
2018-05-07T02:52:27.145Z,12.30
2018-05-07T02:54:54.603Z,12.20
2018-05-07T02:57:22.065Z,12.10
2018-05-07T02:59:50.000Z,12.00
2018-05-07T03:02:17.537Z,12.00
2018-05-07T03:04:44.980Z,11.90
2018-05-07T03:07:12.441Z,11.90
2018-05-07T03:09:39.912Z,11.90
2018-05-07T03:12:07.411Z,11.90
2018-05-07T03:14:34.845Z,11.80
2018-05-07T03:17:02.351Z,11.70
2018-05-07T03:19:29.820Z,11.70
2018-05-07T03:21:57.355Z,11.70
2018-05-07T03:24:24.810Z,11.70
2018-05-07T03:26:53.053Z,11.70
2018-05-07T03:29:20.516Z,11.60
2018-05-07T03:31:47.988Z,11.60
2018-05-07T03:34:15.452Z,11.60
2018-05-07T03:36:42.896Z,11.60
2018-05-07T03:39:10.352Z,11.50
2018-05-07T03:41:38.585Z,11.30
2018-05-07T03:44:06.040Z,11.30
2018-05-07T03:46:33.512Z,11.20
2018-05-07T03:49:01.002Z,11.20
2018-05-07T03:51:28.461Z,11.20
2018-05-07T03:53:55.906Z,11.20
2018-05-07T08:52:26.411Z,26.80
2018-05-07T08:54:53.872Z,26.90
2018-05-07T08:57:21.397Z,27.20
2018-05-07T08:59:48.849Z,27.70
2018-05-07T09:22:47.461Z,29.90
2018-05-07T09:25:14.976Z,29.30
2018-05-07T09:27:42.432Z,29.20
2018-05-07T09:30:09.908Z,29.20
2018-05-07T09:32:37.374Z,29.30
2018-05-07T09:35:04.825Z,29.50
2018-05-07T09:37:32.293Z,29.40
2018-05-07T09:39:59.859Z,29.50
2018-05-07T09:42:27.337Z,29.60
2018-05-07T09:44:54.804Z,29.70
2018-05-07T09:47:22.268Z,29.80
2018-05-07T18:20:00.118Z,24.40
2018-05-07T18:22:27.561Z,24.30
2018-05-07T18:24:55.021Z,24.30
2018-05-07T18:27:22.505Z,24.20
2018-05-07T18:29:49.972Z,24.20
2018-05-07T18:32:17.433Z,24.10
2018-05-07T18:34:44.920Z,24.10
2018-05-07T18:37:12.388Z,23.90
2018-05-07T18:39:39.840Z,23.90
2018-05-07T18:42:07.305Z,23.80
2018-05-07T18:44:34.752Z,23.70
2018-05-07T18:47:02.217Z,23.70
2018-05-07T18:49:29.732Z,23.50
2018-05-07T18:51:57.244Z,23.40
2018-05-07T18:54:24.680Z,23.30
2018-05-07T18:56:52.141Z,23.20
2018-05-07T18:59:19.593Z,23.10
2018-05-07T19:01:47.105Z,23.00
2018-05-07T19:04:14.577Z,22.80
2018-05-07T19:06:42.879Z,22.50
2018-05-07T19:09:10.284Z,22.40
2018-05-07T19:11:37.776Z,22.40
2018-05-07T19:14:05.236Z,22.20
2018-05-07T19:16:32.787Z,22.00
2018-05-07T19:19:00.248Z,21.80
2018-05-07T19:21:27.770Z,21.80
2018-05-07T19:23:55.216Z,21.60
2018-05-07T19:26:22.705Z,21.50
2018-05-07T19:28:50.178Z,21.40
2018-05-07T19:31:17.754Z,21.20
2018-05-07T19:33:45.217Z,21.10
2018-05-07T19:36:12.705Z,21.00
2018-05-07T19:38:40.194Z,20.90
2018-05-07T19:41:08.476Z,20.70
2018-05-07T19:43:35.916Z,20.60
2018-05-07T19:46:03.448Z,20.60
2018-05-07T19:48:31.761Z,20.40
2018-05-07T19:50:59.132Z,20.40
2018-05-07T19:53:26.596Z,20.40
2018-05-07T19:55:54.049Z,20.30
2018-05-07T19:58:21.722Z,20.20
2018-05-07T20:00:49.928Z,20.10
2018-05-07T20:03:17.399Z,20.00
2018-05-07T20:05:44.865Z,20.00
2018-05-07T20:08:12.421Z,19.90
2018-05-07T20:10:40.097Z,19.80
2018-05-07T20:13:07.547Z,19.70
2018-05-07T20:15:35.786Z,19.50
2018-05-07T20:18:03.324Z,19.50
2018-05-07T20:20:30.896Z,19.50
2018-05-07T20:22:59.101Z,19.30
2018-05-07T20:25:26.564Z,19.30
2018-05-07T20:27:54.032Z,19.20
2018-05-07T20:30:21.504Z,19.20
2018-05-07T20:32:48.969Z,19.20
2018-05-07T20:35:16.429Z,19.10
2018-05-07T20:37:43.945Z,19.10
2018-05-07T20:40:11.402Z,19.00
2018-05-07T20:42:38.853Z,19.00
2018-05-07T20:45:06.316Z,19.00
2018-05-07T20:47:33.761Z,18.90
2018-05-07T20:50:01.991Z,18.90
2018-05-07T20:52:29.436Z,18.90
2018-05-07T20:54:56.944Z,19.00
2018-05-07T20:57:24.414Z,19.00
2018-05-07T20:59:51.864Z,18.90
2018-05-07T21:02:19.324Z,18.90
2018-05-07T21:04:46.783Z,18.90
2018-05-07T21:07:14.252Z,18.90
2018-05-07T21:09:42.489Z,18.90
2018-05-07T21:12:09.972Z,18.90
2018-05-07T21:14:37.621Z,18.90
2018-05-07T21:17:05.066Z,18.90
2018-05-07T21:19:32.629Z,18.90
2018-05-07T21:22:00.099Z,18.90
2018-05-07T21:24:28.312Z,18.90
2018-05-07T21:26:55.792Z,18.90
2018-05-07T21:29:23.504Z,19.00
2018-05-07T21:31:50.953Z,19.00
2018-05-07T21:34:19.192Z,19.00
2018-05-07T21:36:46.654Z,19.00
2018-05-07T21:39:14.876Z,19.00
2018-05-07T21:41:42.348Z,19.00
2018-05-07T21:44:09.892Z,19.00
2018-05-07T21:46:37.361Z,19.10
2018-05-07T21:49:04.825Z,19.10
2018-05-07T21:51:33.028Z,19.10
2018-05-07T21:54:00.489Z,19.10
2018-05-07T21:56:28.010Z,19.10
2018-05-07T21:58:55.572Z,19.10
2018-05-07T22:01:23.021Z,19.10
2018-05-07T22:03:50.504Z,19.10
2018-05-07T22:06:17.956Z,19.10
2018-05-07T22:08:45.415Z,19.10
2018-05-07T22:11:12.874Z,19.20
2018-05-07T22:13:40.333Z,19.10
2018-05-07T22:16:08.569Z,19.10
2018-05-07T22:18:36.045Z,19.10
2018-05-07T22:21:03.504Z,19.10
2018-05-07T22:23:30.981Z,19.00
2018-05-07T22:25:58.453Z,19.00
2018-05-07T22:28:25.896Z,19.00
2018-05-07T22:30:53.348Z,19.00
2018-05-07T22:33:21.578Z,18.90
2018-05-07T22:35:49.025Z,18.90
2018-05-07T22:38:16.537Z,18.80
2018-05-07T22:40:43.985Z,18.80
2018-05-07T22:43:11.474Z,18.80
2018-05-07T22:45:39.029Z,18.80
2018-05-07T22:48:06.496Z,18.80
2018-05-07T22:50:33.979Z,18.80
2018-05-07T22:53:01.434Z,18.80
2018-05-07T22:55:28.888Z,18.90
2018-05-07T22:57:56.382Z,18.80
2018-05-07T23:00:23.849Z,18.80
2018-05-07T23:02:51.304Z,18.80
2018-05-07T23:05:18.792Z,18.80
2018-05-07T23:07:46.322Z,18.90
2018-05-07T23:10:13.799Z,18.90
2018-05-07T23:12:42.049Z,18.90
2018-05-07T23:15:09.693Z,18.80
2018-05-07T23:17:37.157Z,18.80
2018-05-07T23:20:04.628Z,18.80
2018-05-07T23:22:32.093Z,18.80
2018-05-07T23:24:59.545Z,18.80
2018-05-07T23:27:27.005Z,18.80
2018-05-07T23:29:54.508Z,18.70
2018-05-07T23:32:21.980Z,18.60
2018-05-07T23:34:49.425Z,18.60
2018-05-07T23:37:16.885Z,18.40
2018-05-07T23:39:44.409Z,18.40
2018-05-07T23:42:13.372Z,18.10
2018-05-07T23:44:40.848Z,18.10
2018-05-07T23:47:08.301Z,18.00
2018-05-07T23:49:35.760Z,17.80
2018-05-07T23:52:03.272Z,17.70
2018-05-07T23:54:30.737Z,17.60
2018-05-07T23:56:58.185Z,17.60
2018-05-07T23:59:25.684Z,17.70
